Time;durP1;ratioP1;P1;durP2;ratioP2;P2;SDS_P1;SDS_P2;PMS_P1;PMS_P2;Temp;Humidity;BMP_temperature;BMP_pressure;BME280_temperature;BME280_humidity;BME280_pressure;Samples;Min_cycle;Max_cycle;Signal;HPM_P1;HPM_P2
2023/01/21 00:01:04;;;;;;;;;;;-0.20;99.90;;;;;;5121290;27;20385;-57
2023/01/21 00:03:29;;;;;;;;;;;-0.10;99.90;;;;;;5119059;28;19920;-57
2023/01/21 00:05:57;;;;;;;;;;;0.00;99.90;;;;;;5115989;28;19911;-57
2023/01/21 00:08:22;;;;;;;;;;;0.00;99.90;;;;;;5111518;27;20437;-56
2023/01/21 00:10:48;;;;;;;;;;;0.00;99.90;;;;;;5114474;28;19916;-56
2023/01/21 00:13:14;;;;;;;;;;;0.10;99.90;;;;;;5112129;27;19912;-57
2023/01/21 00:15:39;;;;;;;;;;;0.10;99.90;;;;;;5114124;27;19919;-56
2023/01/21 00:18:05;;;;;;;;;;;0.20;99.90;;;;;;5114365;27;19998;-57
2023/01/21 00:20:30;;;;;;;;;;;0.20;99.90;;;;;;5116571;27;19912;-56
2023/01/21 00:22:56;;;;;;;;;;;0.20;99.90;;;;;;5114170;27;19922;-56
2023/01/21 00:25:21;;;;;;;;;;;0.30;99.90;;;;;;5120898;28;19933;-56
2023/01/21 00:27:47;;;;;;;;;;;0.30;99.90;;;;;;5125207;27;19954;-57
2023/01/21 00:30:12;;;;;;;;;;;0.30;99.90;;;;;;5113937;27;19918;-56
2023/01/21 00:32:38;;;;;;;;;;;0.40;99.90;;;;;;5109738;28;20274;-57
2023/01/21 00:35:04;;;;;;;;;;;0.40;99.90;;;;;;5122926;28;20251;-57
2023/01/21 00:37:29;;;;;;;;;;;0.40;99.90;;;;;;5117524;27;19919;-57
2023/01/21 00:39:55;;;;;;;;;;;0.40;99.90;;;;;;5113361;27;19912;-57
2023/01/21 00:42:20;;;;;;;;;;;0.50;99.90;;;;;;5113489;27;20400;-57
2023/01/21 00:44:46;;;;;;;;;;;0.50;99.90;;;;;;5111886;27;19923;-57
2023/01/21 00:47:11;;;;;;;;;;;0.50;99.90;;;;;;5113733;27;19912;-56
2023/01/21 00:49:37;;;;;;;;;;;0.50;99.90;;;;;;5113118;27;19996;-57
2023/01/21 00:52:02;;;;;;;;;;;0.50;99.90;;;;;;5112636;27;19915;-57
2023/01/21 00:54:30;;;;;;;;;;;0.40;99.90;;;;;;5053749;27;1757771;-56
2023/01/21 00:56:55;;;;;;;;;;;0.40;99.90;;;;;;5111005;28;19951;-56
2023/01/21 00:59:21;;;;;;;;;;;0.40;99.90;;;;;;5111256;28;20389;-56
2023/01/21 01:01:46;;;;;;;;;;;0.40;99.90;;;;;;5114834;27;19916;-57
2023/01/21 01:04:12;;;;;;;;;;;0.40;99.90;;;;;;5118417;27;20382;-56
2023/01/21 01:06:37;;;;;;;;;;;0.40;99.90;;;;;;5111284;28;19964;-57
2023/01/21 01:09:03;;;;;;;;;;;0.30;99.90;;;;;;5114847;27;19916;-57
2023/01/21 01:11:29;;;;;;;;;;;0.40;99.90;;;;;;5120233;27;20003;-56
2023/01/21 01:13:55;;;;;;;;;;;0.40;99.90;;;;;;5114668;28;19912;-57
2023/01/21 01:16:20;;;;;;;;;;;0.40;99.90;;;;;;5112246;28;19911;-57
2023/01/21 01:18:46;;;;;;;;;;;0.40;99.90;;;;;;5111607;28;19911;-56
2023/01/21 01:21:13;;;;;;;;;;;0.40;99.90;;;;;;5111425;28;19908;-57
2023/01/21 01:23:39;;;;;;;;;;;0.40;99.90;;;;;;5115113;28;19920;-56
2023/01/21 01:26:05;;;;;;;;;;;0.40;99.90;;;;;;5114233;28;19934;-56
2023/01/21 01:28:32;;;;;;;;;;;0.50;99.90;;;;;;5111458;28;19999;-57
2023/01/21 01:30:57;;;;;;;;;;;0.50;99.90;;;;;;5111697;28;20270;-56
2023/01/21 01:33:23;;;;;;;;;;;0.50;99.90;;;;;;5111790;28;19912;-56
2023/01/21 01:35:49;;;;;;;;;;;0.50;99.90;;;;;;5110609;28;19919;-56
2023/01/21 01:38:14;;;;;;;;;;;0.50;99.90;;;;;;5111997;28;20278;-57
2023/01/21 01:40:40;;;;;;;;;;;0.50;99.90;;;;;;5110778;28;19935;-57
2023/01/21 01:43:26;;;;;;;;;;;0.50;99.90;;;;;;5111494;28;20282;-56
2023/01/21 01:45:51;;;;;;;;;;;0.60;99.90;;;;;;5119356;27;20469;-57
2023/01/21 01:48:20;;;;;;;;;;;0.60;99.90;;;;;;5132797;27;19990;-56
2023/01/21 01:50:46;;;;;;;;;;;0.50;99.90;;;;;;5100448;27;20392;-57
2023/01/21 01:53:12;;;;;;;;;;;0.50;99.90;;;;;;5117501;27;20447;-57
2023/01/21 01:55:38;;;;;;;;;;;0.50;99.90;;;;;;5117300;27;19912;-57
2023/01/21 01:58:06;;;;;;;;;;;0.50;99.90;;;;;;5118480;27;19994;-56
2023/01/21 02:00:32;;;;;;;;;;;0.50;99.90;;;;;;5118262;27;20423;-56
2023/01/21 02:05:42;;;;;;;;;;;0.50;99.90;;;;;;5118220;27;19922;-57
2023/01/21 02:08:09;;;;;;;;;;;0.50;99.90;;;;;;5118525;27;19911;-57
2023/01/21 02:10:34;;;;;;;;;;;0.60;99.90;;;;;;5113136;27;19912;-57
2023/01/21 02:13:00;;;;;;;;;;;0.60;99.90;;;;;;5117015;27;19912;-57
2023/01/21 02:15:30;;;;;;;;;;;0.50;99.90;;;;;;5119175;27;19938;-57
2023/01/21 02:18:14;;;;;;;;;;;0.60;99.90;;;;;;5113784;28;19915;-57
2023/01/21 02:21:09;;;;;;;;;;;0.60;99.90;;;;;;5117565;27;19912;-56
2023/01/21 02:23:35;;;;;;;;;;;0.60;99.90;;;;;;5116541;27;20511;-57
2023/01/21 02:26:12;;;;;;;;;;;0.60;99.90;;;;;;5117765;27;20003;-57
2023/01/21 02:28:43;;;;;;;;;;;0.60;99.90;;;;;;5116900;27;19972;-57
2023/01/21 02:31:12;;;;;;;;;;;0.60;99.90;;;;;;5117358;27;20010;-55
2023/01/21 02:34:02;;;;;;;;;;;0.60;99.90;;;;;;5118340;27;20453;-57
2023/01/21 02:36:42;;;;;;;;;;;0.60;99.90;;;;;;5114676;28;19915;-57
2023/01/21 02:39:25;;;;;;;;;;;0.60;99.90;;;;;;5121892;27;19935;-56
2023/01/21 02:41:53;;;;;;;;;;;0.60;99.90;;;;;;5114197;28;19919;-56
2023/01/21 02:44:39;;;;;;;;;;;0.60;99.90;;;;;;5117027;27;19915;-56
2023/01/21 02:47:16;;;;;;;;;;;0.60;99.90;;;;;;5117506;27;19980;-56
2023/01/21 02:49:48;;;;;;;;;;;0.60;99.90;;;;;;5118527;27;20006;-56
2023/01/21 02:52:18;;;;;;;;;;;0.60;99.90;;;;;;5118376;27;20251;-57
2023/01/21 02:54:48;;;;;;;;;;;0.60;99.90;;;;;;5117521;27;20001;-56
2023/01/21 02:57:16;;;;;;;;;;;0.50;99.90;;;;;;5113689;28;19912;-57
2023/01/21 02:59:44;;;;;;;;;;;0.60;99.90;;;;;;5116048;27;19918;-57
2023/01/21 03:02:13;;;;;;;;;;;0.50;99.90;;;;;;5117143;27;19912;-57
2023/01/21 03:04:47;;;;;;;;;;;0.60;99.90;;;;;;5121315;27;19972;-57
2023/01/21 03:07:42;;;;;;;;;;;0.60;99.90;;;;;;5130960;27;19919;-56
2023/01/21 03:10:13;;;;;;;;;;;0.60;99.90;;;;;;5101905;27;20255;-56
2023/01/21 03:12:51;;;;;;;;;;;0.60;99.90;;;;;;5115235;27;20397;-56
2023/01/21 03:18:33;;;;;;;;;;;0.70;99.90;;;;;;5154547;27;19914;-56
2023/01/21 03:21:05;;;;;;;;;;;0.70;99.90;;;;;;5115969;27;20363;-56
2023/01/21 03:23:42;;;;;;;;;;;0.80;99.90;;;;;;5115851;27;19915;-56
2023/01/21 03:26:09;;;;;;;;;;;0.80;99.90;;;;;;5113122;27;19923;-57
2023/01/21 03:28:37;;;;;;;;;;;0.80;99.90;;;;;;5112416;28;19911;-57
2023/01/21 03:31:09;;;;;;;;;;;0.80;99.90;;;;;;5113444;28;19939;-56
2023/01/21 03:33:36;;;;;;;;;;;0.80;99.90;;;;;;5112240;28;19914;-57
2023/01/21 03:36:07;;;;;;;;;;;0.80;99.90;;;;;;5113456;28;19912;-57
2023/01/21 03:38:36;;;;;;;;;;;0.80;99.90;;;;;;5117360;27;19912;-56
2023/01/21 03:41:08;;;;;;;;;;;0.80;99.90;;;;;;5133082;27;19911;-56
2023/01/21 03:43:34;;;;;;;;;;;0.90;99.90;;;;;;5125629;27;20008;-56
2023/01/21 03:46:05;;;;;;;;;;;0.90;99.90;;;;;;5113419;28;19947;-56
2023/01/21 03:48:37;;;;;;;;;;;0.90;99.90;;;;;;5114255;27;19917;-56
2023/01/21 03:51:06;;;;;;;;;;;0.90;99.90;;;;;;5128483;27;19912;-57
2023/01/21 03:53:31;;;;;;;;;;;0.90;99.90;;;;;;5124730;27;19946;-56
2023/01/21 03:55:58;;;;;;;;;;;0.80;99.90;;;;;;5115004;27;19911;-57
2023/01/21 03:58:24;;;;;;;;;;;0.80;99.90;;;;;;5114765;27;19972;-57
2023/01/21 04:00:50;;;;;;;;;;;0.70;99.90;;;;;;5113309;27;20366;-57
2023/01/21 04:03:15;;;;;;;;;;;0.70;99.90;;;;;;5117124;27;20481;-57
2023/01/21 04:05:40;;;;;;;;;;;0.60;99.90;;;;;;5121211;27;20389;-56
2023/01/21 04:08:06;;;;;;;;;;;0.60;99.90;;;;;;5128055;27;20304;-56
2023/01/21 04:10:31;;;;;;;;;;;0.60;99.90;;;;;;5114823;27;19922;-56
2023/01/21 04:12:57;;;;;;;;;;;0.60;99.90;;;;;;5115221;27;19918;-56
2023/01/21 04:15:22;;;;;;;;;;;0.60;99.90;;;;;;5118140;27;19956;-57
2023/01/21 04:17:48;;;;;;;;;;;0.60;99.90;;;;;;5120276;27;19922;-57
2023/01/21 04:20:13;;;;;;;;;;;0.50;99.90;;;;;;5119706;27;19957;-57
2023/01/21 04:22:39;;;;;;;;;;;0.40;99.90;;;;;;5122709;27;19969;-56
2023/01/21 04:25:04;;;;;;;;;;;0.40;99.90;;;;;;5116986;27;19919;-57
2023/01/21 04:27:30;;;;;;;;;;;0.40;99.90;;;;;;5131594;27;19907;-56
2023/01/21 04:29:55;;;;;;;;;;;0.30;99.90;;;;;;5113597;27;19912;-57
2023/01/21 04:32:21;;;;;;;;;;;0.30;99.90;;;;;;5116385;28;19962;-57
2023/01/21 04:34:46;;;;;;;;;;;0.20;99.90;;;;;;5114583;28;19919;-58
2023/01/21 04:37:12;;;;;;;;;;;0.10;99.90;;;;;;5111299;28;19919;-56
2023/01/21 04:39:37;;;;;;;;;;;0.00;99.90;;;;;;5111021;27;19912;-57
2023/01/21 04:42:04;;;;;;;;;;;0.00;99.90;;;;;;5116109;28;19951;-56
2023/01/21 04:44:29;;;;;;;;;;;-0.10;99.90;;;;;;5113119;27;19923;-56
2023/01/21 04:46:55;;;;;;;;;;;-0.10;99.90;;;;;;5116573;28;20271;-57
2023/01/21 04:49:20;;;;;;;;;;;-0.10;99.90;;;;;;5112768;28;19912;-57
2023/01/21 04:51:45;;;;;;;;;;;-0.10;99.90;;;;;;5111238;28;19915;-56
2023/01/21 04:54:11;;;;;;;;;;;-0.10;99.90;;;;;;5114683;28;19923;-57
2023/01/21 04:56:37;;;;;;;;;;;0.00;99.90;;;;;;5113671;27;20282;-57
2023/01/21 04:59:02;;;;;;;;;;;-0.10;99.90;;;;;;5117911;28;20319;-56
2023/01/21 05:01:28;;;;;;;;;;;-0.10;99.90;;;;;;5115155;28;19916;-57
2023/01/21 05:03:53;;;;;;;;;;;0.00;99.90;;;;;;5114941;27;19924;-56
2023/01/21 05:06:18;;;;;;;;;;;0.00;99.90;;;;;;5117166;27;19912;-57
2023/01/21 05:08:44;;;;;;;;;;;0.10;99.90;;;;;;5115440;28;19911;-57
2023/01/21 05:11:10;;;;;;;;;;;0.10;99.90;;;;;;5112030;28;19912;-56
2023/01/21 05:13:36;;;;;;;;;;;0.10;99.90;;;;;;5113843;27;20378;-57
2023/01/21 05:16:03;;;;;;;;;;;0.10;99.90;;;;;;5114773;27;20018;-57
2023/01/21 05:18:28;;;;;;;;;;;0.10;99.90;;;;;;5115285;27;20570;-57
2023/01/21 05:20:55;;;;;;;;;;;0.20;99.90;;;;;;5117684;27;20116;-57
2023/01/21 05:23:21;;;;;;;;;;;0.20;99.90;;;;;;5118957;27;19916;-56
2023/01/21 05:25:47;;;;;;;;;;;0.30;99.90;;;;;;5116284;27;19916;-56
2023/01/21 05:28:13;;;;;;;;;;;0.40;99.90;;;;;;5118641;27;19916;-57
2023/01/21 05:30:38;;;;;;;;;;;0.40;99.90;;;;;;5117510;27;19919;-56
2023/01/21 05:33:03;;;;;;;;;;;0.40;99.90;;;;;;5115178;27;20638;-57
2023/01/21 05:35:29;;;;;;;;;;;0.50;99.90;;;;;;5135177;27;19960;-57
2023/01/21 05:37:54;;;;;;;;;;;0.50;99.90;;;;;;5133240;27;19981;-57
2023/01/21 05:40:20;;;;;;;;;;;0.50;99.90;;;;;;5115778;27;20416;-56
2023/01/21 05:42:46;;;;;;;;;;;0.50;99.90;;;;;;5123350;27;19911;-57
2023/01/21 05:45:11;;;;;;;;;;;0.60;99.90;;;;;;5122956;27;19953;-57
2023/01/21 05:47:37;;;;;;;;;;;0.50;99.90;;;;;;5113465;27;19957;-57
2023/01/21 05:50:03;;;;;;;;;;;0.60;99.90;;;;;;5118860;27;19934;-57
2023/01/21 05:52:28;;;;;;;;;;;0.60;99.90;;;;;;5117794;27;19912;-56
2023/01/21 05:54:54;;;;;;;;;;;0.60;99.90;;;;;;5115071;27;20388;-57
2023/01/21 05:57:19;;;;;;;;;;;0.70;99.90;;;;;;5118851;27;19916;-56
2023/01/21 05:59:45;;;;;;;;;;;0.70;99.90;;;;;;5118612;27;20329;-56
2023/01/21 06:02:10;;;;;;;;;;;0.70;99.90;;;;;;5115316;27;19957;-56
2023/01/21 06:04:35;;;;;;;;;;;0.70;99.90;;;;;;5122484;27;19916;-57
2023/01/21 06:07:01;;;;;;;;;;;0.70;99.90;;;;;;5115092;28;19912;-57
2023/01/21 06:09:26;;;;;;;;;;;0.80;99.90;;;;;;5116570;27;19969;-56
2023/01/21 06:11:52;;;;;;;;;;;0.70;99.90;;;;;;5119926;27;19990;-57
2023/01/21 06:14:17;;;;;;;;;;;0.80;99.90;;;;;;5118552;27;19914;-57
2023/01/21 06:16:43;;;;;;;;;;;0.80;99.90;;;;;;5116759;27;19912;-57
2023/01/21 06:19:08;;;;;;;;;;;0.80;99.90;;;;;;5118030;27;20399;-56
2023/01/21 06:21:34;;;;;;;;;;;0.80;99.90;;;;;;5114401;28;19912;-57
2023/01/21 06:24:01;;;;;;;;;;;0.80;99.90;;;;;;5123329;27;19919;-56
2023/01/21 06:26:26;;;;;;;;;;;0.80;99.90;;;;;;5117797;27;20267;-56
2023/01/21 06:28:54;;;;;;;;;;;0.80;99.90;;;;;;5116546;27;19912;-57
2023/01/21 06:31:19;;;;;;;;;;;0.80;99.90;;;;;;5117514;27;19911;-56
2023/01/21 06:33:45;;;;;;;;;;;0.80;99.90;;;;;;5116623;27;19964;-57
2023/01/21 06:36:10;;;;;;;;;;;0.80;99.90;;;;;;5114071;28;20334;-56
2023/01/21 06:38:36;;;;;;;;;;;0.80;99.90;;;;;;5116883;27;19990;-57
2023/01/21 06:41:02;;;;;;;;;;;0.80;99.90;;;;;;5114503;28;19919;-57
2023/01/21 06:43:27;;;;;;;;;;;0.90;99.90;;;;;;5116030;27;19916;-56
2023/01/21 06:45:53;;;;;;;;;;;0.90;99.90;;;;;;5117052;27;20085;-56
2023/01/21 06:48:18;;;;;;;;;;;0.90;99.90;;;;;;5117445;27;19908;-56
2023/01/21 06:50:44;;;;;;;;;;;0.90;99.90;;;;;;5120299;27;19919;-57
2023/01/21 06:53:09;;;;;;;;;;;0.80;99.90;;;;;;5124290;27;19928;-56
2023/01/21 06:55:35;;;;;;;;;;;0.90;99.90;;;;;;5117008;27;20389;-56
2023/01/21 06:58:00;;;;;;;;;;;0.90;99.90;;;;;;5116292;27;20385;-56
2023/01/21 07:00:26;;;;;;;;;;;0.80;99.90;;;;;;5116654;27;19926;-56
2023/01/21 07:02:57;;;;;;;;;;;0.80;99.90;;;;;;5125939;27;20428;-57
2023/01/21 07:05:23;;;;;;;;;;;0.80;99.90;;;;;;5124218;27;19965;-57
2023/01/21 07:07:48;;;;;;;;;;;0.90;99.90;;;;;;5123415;27;19911;-57
2023/01/21 07:10:14;;;;;;;;;;;0.80;99.90;;;;;;5118522;27;19912;-57
2023/01/21 07:12:39;;;;;;;;;;;0.90;99.90;;;;;;5122523;27;19914;-56
2023/01/21 07:15:05;;;;;;;;;;;0.90;99.90;;;;;;5117271;27;19911;-57
2023/01/21 07:17:31;;;;;;;;;;;0.90;99.90;;;;;;5118401;27;19958;-56
2023/01/21 07:19:57;;;;;;;;;;;0.80;99.90;;;;;;5120696;27;19914;-57
2023/01/21 07:22:22;;;;;;;;;;;0.90;99.90;;;;;;5117059;27;19968;-57
2023/01/21 07:24:48;;;;;;;;;;;0.90;99.90;;;;;;5121124;27;20451;-57
2023/01/21 07:27:13;;;;;;;;;;;0.90;99.90;;;;;;5121607;27;19911;-57
2023/01/21 07:29:38;;;;;;;;;;;1.00;99.90;;;;;;5122732;27;20369;-57
2023/01/21 07:32:04;;;;;;;;;;;1.00;99.90;;;;;;5120589;27;19907;-57
2023/01/21 07:34:29;;;;;;;;;;;1.00;99.90;;;;;;5117761;27;20383;-56
2023/01/21 07:36:55;;;;;;;;;;;1.00;99.90;;;;;;5119820;27;20327;-57
2023/01/21 07:39:20;;;;;;;;;;;1.00;99.90;;;;;;5121256;27;19915;-57
2023/01/21 07:41:46;;;;;;;;;;;1.10;99.90;;;;;;5119537;27;19915;-58
2023/01/21 07:44:11;;;;;;;;;;;1.10;99.90;;;;;;5120618;27;20022;-56
2023/01/21 07:46:37;;;;;;;;;;;1.00;99.90;;;;;;5122337;27;19919;-56
2023/01/21 07:49:02;;;;;;;;;;;1.10;99.90;;;;;;5120173;27;20366;-57
2023/01/21 07:51:28;;;;;;;;;;;1.10;99.90;;;;;;5122649;27;20003;-57
2023/01/21 07:53:54;;;;;;;;;;;1.10;99.90;;;;;;5119586;27;19953;-56
2023/01/21 07:56:19;;;;;;;;;;;1.10;99.90;;;;;;5119260;27;19918;-57
2023/01/21 07:58:45;;;;;;;;;;;1.10;99.90;;;;;;5121034;27;19925;-56
2023/01/21 08:01:11;;;;;;;;;;;1.00;99.90;;;;;;5116855;27;19908;-57
2023/01/21 08:03:37;;;;;;;;;;;1.00;99.90;;;;;;5112201;27;19943;-56
2023/01/21 08:06:04;;;;;;;;;;;1.00;99.90;;;;;;5112832;28;20006;-56
2023/01/21 08:08:29;;;;;;;;;;;1.10;99.90;;;;;;5128875;27;19912;-56
2023/01/21 08:10:55;;;;;;;;;;;1.00;99.90;;;;;;5133385;27;19938;-57
2023/01/21 08:13:21;;;;;;;;;;;1.10;99.90;;;;;;5133280;27;19908;-57
2023/01/21 08:15:50;;;;;;;;;;;1.00;99.90;;;;;;5129378;27;19939;-56
2023/01/21 08:18:16;;;;;;;;;;;1.10;99.90;;;;;;5129864;27;20309;-56
2023/01/21 08:20:42;;;;;;;;;;;1.00;99.90;;;;;;5132748;27;19908;-56
2023/01/21 08:23:07;;;;;;;;;;;1.10;99.90;;;;;;5132277;27;19915;-56
2023/01/21 08:25:33;;;;;;;;;;;1.10;99.90;;;;;;5131537;27;19925;-56
2023/01/21 08:27:58;;;;;;;;;;;1.10;99.90;;;;;;5133166;27;19958;-56
2023/01/21 08:30:24;;;;;;;;;;;1.10;99.90;;;;;;5132292;27;20068;-56
2023/01/21 08:32:49;;;;;;;;;;;1.20;99.90;;;;;;5132794;28;20370;-56
2023/01/21 08:35:15;;;;;;;;;;;1.10;99.90;;;;;;5116161;28;20002;-56
2023/01/21 08:37:40;;;;;;;;;;;1.20;99.90;;;;;;5106144;28;19980;-56
2023/01/21 08:40:06;;;;;;;;;;;1.20;99.90;;;;;;5127404;28;19915;-56
2023/01/21 08:42:32;;;;;;;;;;;1.20;99.90;;;;;;5124781;27;19915;-56
2023/01/21 08:44:57;;;;;;;;;;;1.20;99.90;;;;;;5112167;28;20358;-56
2023/01/21 08:47:23;;;;;;;;;;;1.30;99.90;;;;;;5113243;28;19912;-56
2023/01/21 08:49:48;;;;;;;;;;;1.30;99.90;;;;;;5114326;28;20015;-56
2023/01/21 08:52:15;;;;;;;;;;;1.20;99.90;;;;;;5133081;28;19908;-56
2023/01/21 08:54:41;;;;;;;;;;;1.20;99.90;;;;;;5125966;27;20017;-56
2023/01/21 08:57:07;;;;;;;;;;;1.30;99.90;;;;;;5136519;27;20354;-56
2023/01/21 08:59:32;;;;;;;;;;;1.30;99.90;;;;;;5137064;27;19912;-56
2023/01/21 09:01:58;;;;;;;;;;;1.30;99.90;;;;;;5131974;27;20401;-56
2023/01/21 09:04:23;;;;;;;;;;;1.30;99.90;;;;;;5121217;27;19944;-56
2023/01/21 09:06:49;;;;;;;;;;;1.30;99.90;;;;;;5135532;27;20316;-56
2023/01/21 09:09:14;;;;;;;;;;;1.40;99.90;;;;;;5119238;27;19908;-56
2023/01/21 09:11:40;;;;;;;;;;;1.40;99.90;;;;;;5115073;28;19908;-56
2023/01/21 09:14:05;;;;;;;;;;;1.40;99.90;;;;;;5133792;27;19976;-56
2023/01/21 09:16:31;;;;;;;;;;;1.50;99.90;;;;;;5119195;27;19918;-57
2023/01/21 09:19:00;;;;;;;;;;;1.50;99.90;;;;;;5115347;27;19908;-56
2023/01/21 09:21:28;;;;;;;;;;;1.50;99.90;;;;;;5116086;28;19908;-56
2023/01/21 09:23:54;;;;;;;;;;;1.60;99.90;;;;;;5114880;27;19920;-56
2023/01/21 09:26:20;;;;;;;;;;;1.60;99.90;;;;;;5119702;27;20053;-56
2023/01/21 09:28:50;;;;;;;;;;;1.60;99.90;;;;;;5128686;27;19908;-56
2023/01/21 09:31:17;;;;;;;;;;;1.60;99.90;;;;;;5124841;27;19911;-57
2023/01/21 09:33:44;;;;;;;;;;;1.60;99.90;;;;;;5115197;28;19930;-56
2023/01/21 09:36:18;;;;;;;;;;;1.70;99.90;;;;;;5131379;27;19908;-56
2023/01/21 09:38:44;;;;;;;;;;;1.70;99.90;;;;;;5124828;27;19916;-56
2023/01/21 09:41:21;;;;;;;;;;;1.70;99.90;;;;;;5134193;27;19952;-56
2023/01/21 09:44:00;;;;;;;;;;;1.70;99.90;;;;;;5125438;27;19924;-56
2023/01/21 09:46:33;;;;;;;;;;;1.80;99.90;;;;;;5114901;28;19914;-56
2023/01/21 09:49:01;;;;;;;;;;;1.80;99.90;;;;;;5115349;27;19912;-56
2023/01/21 09:51:55;;;;;;;;;;;1.80;99.90;;;;;;5119849;27;19995;-56
2023/01/21 09:54:25;;;;;;;;;;;1.90;99.90;;;;;;5113045;27;19919;-57
2023/01/21 09:56:56;;;;;;;;;;;1.90;99.90;;;;;;5134490;27;19911;-57
2023/01/21 09:59:32;;;;;;;;;;;2.00;99.90;;;;;;5135040;27;19915;-56
2023/01/21 10:01:59;;;;;;;;;;;2.00;99.90;;;;;;5114493;27;19964;-56
2023/01/21 10:04:27;;;;;;;;;;;2.00;99.90;;;;;;5119068;27;20014;-56
2023/01/21 10:07:19;;;;;;;;;;;2.10;99.90;;;;;;5124033;27;20375;-56
2023/01/21 10:10:03;;;;;;;;;;;2.10;99.90;;;;;;5117293;27;19919;-56
2023/01/21 10:12:42;;;;;;;;;;;2.20;99.90;;;;;;5124257;27;19997;-56
2023/01/21 10:15:23;;;;;;;;;;;2.20;99.90;;;;;;5115113;27;19912;-56
2023/01/21 10:17:54;;;;;;;;;;;2.30;99.90;;;;;;5122157;27;19964;-56
2023/01/21 10:20:36;;;;;;;;;;;2.30;99.90;;;;;;5121101;27;19911;-56
2023/01/21 10:23:10;;;;;;;;;;;2.40;99.90;;;;;;5134542;27;19908;-56
2023/01/21 10:25:36;;;;;;;;;;;2.40;99.90;;;;;;5125936;27;19927;-56
2023/01/21 10:28:04;;;;;;;;;;;2.40;99.90;;;;;;5126117;27;19907;-57
2023/01/21 10:30:32;;;;;;;;;;;2.50;99.90;;;;;;5133063;27;19917;-56
2023/01/21 10:32:58;;;;;;;;;;;2.60;99.90;;;;;;5135049;27;19907;-57
2023/01/21 10:35:29;;;;;;;;;;;2.60;99.90;;;;;;5134501;27;19915;-56
2023/01/21 10:38:02;;;;;;;;;;;2.70;99.90;;;;;;5132918;27;19991;-57
2023/01/21 10:40:44;;;;;;;;;;;2.70;99.90;;;;;;5135172;27;19976;-57
2023/01/21 10:43:14;;;;;;;;;;;2.80;99.90;;;;;;5126542;27;19968;-56
2023/01/21 10:45:43;;;;;;;;;;;2.90;99.90;;;;;;5134668;27;20369;-57
2023/01/21 10:48:12;;;;;;;;;;;3.00;99.90;;;;;;5135020;27;19907;-57
2023/01/21 10:50:42;;;;;;;;;;;3.00;99.90;;;;;;5132452;27;20377;-57
2023/01/21 10:53:11;;;;;;;;;;;3.00;99.90;;;;;;5134638;27;20366;-57
2023/01/21 10:55:46;;;;;;;;;;;3.00;99.90;;;;;;5121144;27;19916;-57
2023/01/21 10:58:24;;;;;;;;;;;3.10;99.90;;;;;;5113857;28;19939;-57
2023/01/21 11:00:51;;;;;;;;;;;3.00;99.90;;;;;;5123686;27;19907;-57
2023/01/21 11:03:32;;;;;;;;;;;3.00;99.90;;;;;;5132898;27;20378;-57
2023/01/21 11:05:59;;;;;;;;;;;3.00;99.90;;;;;;5126528;27;19915;-57
2023/01/21 11:08:25;;;;;;;;;;;3.10;99.90;;;;;;5115701;27;19915;-56
2023/01/21 11:10:55;;;;;;;;;;;3.20;99.90;;;;;;5133533;27;19911;-57
2023/01/21 11:13:21;;;;;;;;;;;3.30;99.90;;;;;;5125853;27;19908;-57
2023/01/21 11:15:53;;;;;;;;;;;3.50;99.90;;;;;;5113179;28;19938;-56
2023/01/21 11:18:29;;;;;;;;;;;3.60;99.90;;;;;;5123708;27;19957;-57
2023/01/21 11:20:57;;;;;;;;;;;3.70;99.90;;;;;;5129291;27;19912;-57
2023/01/21 11:23:27;;;;;;;;;;;3.80;99.90;;;;;;5121826;27;19926;-57
2023/01/21 11:25:58;;;;;;;;;;;3.80;99.90;;;;;;5121364;27;20366;-57
2023/01/21 11:28:25;;;;;;;;;;;3.90;99.90;;;;;;5113602;28;19950;-57
2023/01/21 11:31:07;;;;;;;;;;;3.90;99.90;;;;;;5113152;28;19959;-56
2023/01/21 11:33:33;;;;;;;;;;;3.90;99.90;;;;;;5124641;27;19933;-57
2023/01/21 11:36:08;;;;;;;;;;;3.90;99.90;;;;;;5124917;27;19924;-57
2023/01/21 11:38:34;;;;;;;;;;;3.90;99.90;;;;;;5112464;27;19916;-56
2023/01/21 11:41:04;;;;;;;;;;;4.00;99.90;;;;;;5115634;27;19916;-57
2023/01/21 11:43:39;;;;;;;;;;;4.10;99.90;;;;;;5113042;27;19972;-57
2023/01/21 11:46:31;;;;;;;;;;;4.10;99.90;;;;;;5115757;27;19914;-56
2023/01/21 11:49:06;;;;;;;;;;;4.10;99.90;;;;;;5126873;27;20085;-57
2023/01/21 11:51:32;;;;;;;;;;;4.20;99.90;;;;;;5125460;27;21323;-57
2023/01/21 11:54:06;;;;;;;;;;;4.20;99.90;;;;;;5111894;27;20285;-57
2023/01/21 11:56:32;;;;;;;;;;;4.20;99.90;;;;;;5112765;28;19907;-57
2023/01/21 11:58:58;;;;;;;;;;;4.20;99.90;;;;;;5112852;28;19907;-57
2023/01/21 12:01:23;;;;;;;;;;;4.20;99.90;;;;;;5112552;27;20431;-56
2023/01/21 12:03:58;;;;;;;;;;;4.20;99.90;;;;;;5112557;28;19920;-56
2023/01/21 12:06:25;;;;;;;;;;;4.30;99.90;;;;;;5120707;27;19963;-57
2023/01/21 12:08:53;;;;;;;;;;;4.30;99.90;;;;;;5130419;27;19912;-57
2023/01/21 12:11:21;;;;;;;;;;;4.30;99.90;;;;;;5124488;27;19957;-56
2023/01/21 12:13:46;;;;;;;;;;;4.30;99.90;;;;;;5122774;27;21054;-57
2023/01/21 12:16:31;;;;;;;;;;;4.30;99.90;;;;;;5123238;27;19937;-56
2023/01/21 12:19:19;;;;;;;;;;;4.30;99.90;;;;;;5115888;27;19916;-57
2023/01/21 12:22:01;;;;;;;;;;;4.30;99.90;;;;;;5115870;27;19915;-57
2023/01/21 12:24:45;;;;;;;;;;;4.30;99.90;;;;;;5124792;27;19920;-56
2023/01/21 12:27:11;;;;;;;;;;;4.30;99.90;;;;;;5122736;27;20014;-56
2023/01/21 12:29:45;;;;;;;;;;;4.40;99.90;;;;;;5119313;27;20015;-57
2023/01/21 12:32:14;;;;;;;;;;;4.40;99.90;;;;;;5121019;27;19912;-56
2023/01/21 12:34:52;;;;;;;;;;;4.50;99.90;;;;;;5119069;28;19923;-56
2023/01/21 12:37:41;;;;;;;;;;;4.60;99.90;;;;;;5112499;28;19956;-56
2023/01/21 12:40:18;;;;;;;;;;;4.70;99.90;;;;;;5129037;28;20006;-56
2023/01/21 12:42:46;;;;;;;;;;;4.90;99.90;;;;;;5124185;28;19912;-57
2023/01/21 12:45:14;;;;;;;;;;;4.80;99.90;;;;;;5121197;28;19926;-57
2023/01/21 12:47:43;;;;;;;;;;;4.80;99.90;;;;;;5119880;28;19908;-56
2023/01/21 12:50:18;;;;;;;;;;;4.80;99.90;;;;;;5119358;28;19919;-56
2023/01/21 12:52:43;;;;;;;;;;;4.70;99.90;;;;;;5119487;28;20010;-57
2023/01/21 12:55:18;;;;;;;;;;;4.60;99.90;;;;;;5122155;28;20434;-56
2023/01/21 12:57:52;;;;;;;;;;;4.60;99.90;;;;;;5120711;28;19923;-56
2023/01/21 13:00:23;;;;;;;;;;;4.60;99.90;;;;;;5121388;28;19912;-57
2023/01/21 13:02:48;;;;;;;;;;;4.60;99.90;;;;;;5120712;28;20040;-56
2023/01/21 13:05:34;;;;;;;;;;;4.50;99.90;;;;;;5119696;28;20018;-56
2023/01/21 13:07:59;;;;;;;;;;;4.40;99.90;;;;;;5076850;28;20395;-56
2023/01/21 13:10:27;;;;;;;;;;;4.40;99.90;;;;;;5116938;28;19916;-56
2023/01/21 13:13:02;;;;;;;;;;;4.40;99.90;;;;;;5119689;28;19912;-56
2023/01/21 13:15:30;;;;;;;;;;;4.30;99.90;;;;;;5129761;28;19916;-56
2023/01/21 13:17:58;;;;;;;;;;;4.30;99.90;;;;;;5130030;28;20026;-57
2023/01/21 13:20:24;;;;;;;;;;;4.30;99.90;;;;;;5126866;28;19919;-57
2023/01/21 13:23:15;;;;;;;;;;;4.40;99.90;;;;;;5128080;28;19979;-57
2023/01/21 13:25:47;;;;;;;;;;;4.40;99.90;;;;;;5122718;28;20407;-56
2023/01/21 13:28:31;;;;;;;;;;;4.50;99.90;;;;;;5132711;28;19998;-57
2023/01/21 13:31:14;;;;;;;;;;;4.40;99.90;;;;;;5130080;28;19998;-56
2023/01/21 13:33:46;;;;;;;;;;;4.40;99.90;;;;;;5132023;28;20290;-56
2023/01/21 13:36:23;;;;;;;;;;;4.40;99.90;;;;;;5132558;28;19908;-56
2023/01/21 13:38:53;;;;;;;;;;;4.50;99.90;;;;;;5130541;27;20282;-56
2023/01/21 13:41:39;;;;;;;;;;;4.60;99.90;;;;;;5135836;27;20298;-56
2023/01/21 13:44:23;;;;;;;;;;;4.80;99.90;;;;;;5136304;27;19915;-56
2023/01/21 13:46:57;;;;;;;;;;;4.90;99.90;;;;;;5134883;27;20509;-56
2023/01/21 13:49:41;;;;;;;;;;;5.00;99.90;;;;;;5127156;27;19926;-56
2023/01/21 13:52:18;;;;;;;;;;;5.10;99.90;;;;;;5117371;27;19912;-57
2023/01/21 13:54:43;;;;;;;;;;;5.30;99.90;;;;;;5117459;27;19924;-57
2023/01/21 13:57:11;;;;;;;;;;;5.50;99.90;;;;;;5135201;27;19907;-56
2023/01/21 13:59:43;;;;;;;;;;;5.50;99.90;;;;;;5132163;27;19911;-56
2023/01/21 14:02:18;;;;;;;;;;;5.40;99.90;;;;;;5129147;27;19934;-56
2023/01/21 14:04:43;;;;;;;;;;;5.30;99.90;;;;;;5135263;27;19919;-56
2023/01/21 14:07:13;;;;;;;;;;;5.40;99.90;;;;;;5127699;27;19912;-56
2023/01/21 14:09:42;;;;;;;;;;;5.60;99.90;;;;;;5114242;27;19911;-57
2023/01/21 14:12:12;;;;;;;;;;;5.70;99.90;;;;;;5115344;28;20011;-56
2023/01/21 14:14:43;;;;;;;;;;;5.90;99.90;;;;;;5113874;28;19995;-56
2023/01/21 14:17:08;;;;;;;;;;;6.10;99.90;;;;;;5115099;28;19915;-56
2023/01/21 14:19:37;;;;;;;;;;;6.30;99.90;;;;;;5119381;27;19916;-57
2023/01/21 14:22:11;;;;;;;;;;;6.40;99.90;;;;;;5114224;28;20342;-56
2023/01/21 14:24:55;;;;;;;;;;;6.60;99.90;;;;;;5114575;28;19919;-57
2023/01/21 14:27:36;;;;;;;;;;;6.70;99.90;;;;;;5120292;27;19951;-57
2023/01/21 14:30:19;;;;;;;;;;;6.80;99.90;;;;;;5117061;27;20354;-56
2023/01/21 14:33:02;;;;;;;;;;;6.90;99.90;;;;;;5124935;27;20414;-56
2023/01/21 14:35:32;;;;;;;;;;;7.10;99.90;;;;;;5132592;27;19936;-55
2023/01/21 14:37:58;;;;;;;;;;;7.20;99.90;;;;;;5135097;27;19920;-56
2023/01/21 14:40:23;;;;;;;;;;;7.30;99.90;;;;;;5127394;27;20416;-57
2023/01/21 14:42:50;;;;;;;;;;;7.40;99.90;;;;;;5127906;27;20251;-57
2023/01/21 14:45:17;;;;;;;;;;;7.50;99.90;;;;;;5129663;27;19920;-56